Time;durP1;ratioP1;P1;durP2;ratioP2;P2;SDS_P1;SDS_P2;PMS_P1;PMS_P2;Temp;Humidity;BMP_temperature;BMP_pressure;BME280_temperature;BME280_humidity;BME280_pressure;Samples;Min_cycle;Max_cycle;Signal;HPM_P1;HPM_P2
2022/03/19 00:01:00;;;;;;;2.30;2.10;;;10.80;66.20;;;;;;5027931;28;20201;-46
2022/03/19 00:03:27;;;;;;;2.07;1.70;;;10.70;66.20;;;;;;5021401;28;20209;-47
2022/03/19 00:05:55;;;;;;;2.13;1.97;;;10.70;66.40;;;;;;5027448;28;20568;-42
2022/03/19 00:08:23;;;;;;;2.57;2.20;;;10.70;66.60;;;;;;5028109;28;20189;-42
2022/03/19 00:10:51;;;;;;;2.40;2.20;;;10.70;66.80;;;;;;5028829;28;20233;-48
2022/03/19 00:13:18;;;;;;;4.03;2.30;;;10.70;67.10;;;;;;5028222;28;20215;-46
2022/03/19 00:15:48;;;;;;;2.87;2.23;;;10.70;67.20;;;;;;5017234;28;20195;-42
2022/03/19 00:18:17;;;;;;;2.47;2.17;;;10.70;67.40;;;;;;5026359;28;20271;-43
2022/03/19 00:20:45;;;;;;;6.97;2.87;;;10.60;67.40;;;;;;5010395;28;20206;-46
2022/03/19 00:23:12;;;;;;;3.97;2.70;;;10.60;67.90;;;;;;5017190;28;20225;-45
2022/03/19 00:25:40;;;;;;;3.40;2.20;;;10.50;68.00;;;;;;5023042;28;20211;-43
2022/03/19 00:28:07;;;;;;;4.07;2.50;;;10.50;68.20;;;;;;5021545;28;20199;-43
2022/03/19 00:30:34;;;;;;;9.27;3.93;;;10.60;68.50;;;;;;5020102;28;20202;-44
2022/03/19 00:33:03;;;;;;;6.13;3.47;;;10.60;68.80;;;;;;5027770;28;20203;-44
2022/03/19 00:35:31;;;;;;;5.23;2.70;;;10.70;69.20;;;;;;5024876;28;20199;-43
2022/03/19 00:37:59;;;;;;;6.30;3.17;;;10.70;69.10;;;;;;5024343;28;20204;-44
2022/03/19 00:40:27;;;;;;;6.60;3.30;;;10.70;69.20;;;;;;5024597;28;20208;-47
2022/03/19 00:42:54;;;;;;;9.43;4.47;;;10.70;69.50;;;;;;5012098;28;20584;-43
2022/03/19 00:45:21;;;;;;;7.77;4.33;;;10.80;70.00;;;;;;5027177;28;20207;-44
2022/03/19 00:47:48;;;;;;;4.83;3.10;;;10.70;70.80;;;;;;5025166;28;20195;-47
2022/03/19 00:50:17;;;;;;;5.33;3.13;;;10.80;70.10;;;;;;5025682;28;20198;-44
2022/03/19 00:52:44;;;;;;;3.63;2.80;;;10.80;70.00;;;;;;5025505;28;20247;-45
2022/03/19 00:55:11;;;;;;;4.43;2.80;;;10.80;70.10;;;;;;5023067;28;20285;-45
2022/03/19 00:57:39;;;;;;;5.77;2.87;;;10.80;70.30;;;;;;5027919;28;20195;-47
2022/03/19 01:00:09;;;;;;;5.23;2.83;;;10.70;70.30;;;;;;5027697;28;20702;-42
2022/03/19 01:02:36;;;;;;;4.60;3.30;;;10.70;70.60;;;;;;5023952;28;20567;-43
2022/03/19 01:05:04;;;;;;;6.77;3.50;;;10.70;70.80;;;;;;5009893;28;20236;-44
2022/03/19 01:07:33;;;;;;;6.93;3.73;;;10.70;70.80;;;;;;5023320;28;20229;-43
2022/03/19 01:10:00;;;;;;;16.70;7.00;;;10.60;71.10;;;;;;5025821;28;20671;-43
2022/03/19 01:12:27;;;;;;;15.30;6.23;;;10.60;71.90;;;;;;5025482;28;20298;-41
2022/03/19 01:14:54;;;;;;;11.77;6.60;;;10.60;72.10;;;;;;5024302;28;20200;-44
2022/03/19 01:17:21;;;;;;;8.83;5.10;;;10.60;72.40;;;;;;5017797;28;20614;-41
2022/03/19 01:19:54;;;;;;;11.40;5.53;;;10.50;72.70;;;;;;5027441;28;20198;-42
2022/03/19 01:22:22;;;;;;;11.70;5.43;;;10.60;73.00;;;;;;5022992;28;20272;-44
2022/03/19 01:24:51;;;;;;;7.27;4.63;;;10.50;73.00;;;;;;5023912;28;20217;-46
2022/03/19 01:27:19;;;;;;;8.57;4.33;;;10.50;73.00;;;;;;5028370;28;20205;-48
2022/03/19 01:29:46;;;;;;;12.07;6.13;;;10.50;73.20;;;;;;5019966;28;20208;-46
2022/03/19 01:32:13;;;;;;;12.03;6.60;;;10.50;73.50;;;;;;5022364;28;20594;-48
2022/03/19 01:34:40;;;;;;;14.13;6.73;;;10.50;74.00;;;;;;5029871;28;20241;-41
2022/03/19 01:37:07;;;;;;;10.93;5.27;;;10.40;74.20;;;;;;5030254;28;20203;-42
2022/03/19 01:39:35;;;;;;;12.73;6.47;;;10.30;74.40;;;;;;5025030;28;20661;-45
2022/03/19 01:42:04;;;;;;;15.07;7.03;;;10.30;75.20;;;;;;5018582;28;20208;-43
2022/03/19 01:44:31;;;;;;;6.47;4.23;;;10.30;76.00;;;;;;5012785;28;20208;-43
2022/03/19 01:47:01;;;;;;;8.83;4.57;;;10.30;76.10;;;;;;5026833;28;20201;-47
2022/03/19 01:49:29;;;;;;;7.40;3.97;;;10.20;76.10;;;;;;5019383;28;20204;-47
2022/03/19 01:51:57;;;;;;;3.10;2.77;;;10.30;76.20;;;;;;5025781;28;20218;-43
2022/03/19 01:54:27;;;;;;;5.80;2.50;;;10.20;76.10;;;;;;5030014;28;20204;-44
2022/03/19 01:56:55;;;;;;;3.20;2.30;;;10.20;76.10;;;;;;5029290;28;20632;-46
2022/03/19 01:59:27;;;;;;;4.20;2.87;;;10.30;76.20;;;;;;5028407;28;20206;-43
2022/03/19 02:01:56;;;;;;;4.27;2.53;;;10.20;76.10;;;;;;5021138;28;20336;-42
2022/03/19 02:04:23;;;;;;;5.37;2.43;;;10.20;76.90;;;;;;5030583;28;20602;-45
2022/03/19 02:06:51;;;;;;;2.60;2.30;;;10.20;76.30;;;;;;5018345;28;20267;-43
2022/03/19 02:09:18;;;;;;;5.60;2.60;;;10.10;76.40;;;;;;5009733;28;20205;-45
2022/03/19 02:11:45;;;;;;;3.60;2.70;;;10.10;76.70;;;;;;5020123;28;20201;-43
2022/03/19 02:14:13;;;;;;;3.23;2.33;;;10.10;76.80;;;;;;5027944;28;20201;-45
2022/03/19 02:16:43;;;;;;;7.13;3.47;;;10.10;76.90;;;;;;5023325;28;20197;-42
2022/03/19 02:19:11;;;;;;;10.20;5.10;;;10.10;77.40;;;;;;5029884;28;20191;-42
2022/03/19 02:21:42;;;;;;;7.77;4.60;;;10.10;78.30;;;;;;5023773;28;20199;-41
2022/03/19 02:26:57;;;;;;;6.00;3.30;;;10.10;78.50;;;;;;5024293;28;20368;-43
2022/03/19 02:29:24;;;;;;;8.20;4.80;;;9.90;79.60;;;;;;5019722;28;20222;-46
2022/03/19 02:31:53;;;;;;;7.80;3.70;;;9.90;80.30;;;;;;5025883;28;20208;-48
2022/03/19 02:34:21;;;;;;;9.40;4.20;;;9.80;80.60;;;;;;5030767;28;20623;-44
2022/03/19 02:36:48;;;;;;;4.53;3.40;;;9.80;81.00;;;;;;5019192;28;20294;-43
2022/03/19 02:39:18;;;;;;;11.37;4.50;;;9.80;81.30;;;;;;5020427;28;20197;-46
2022/03/19 02:41:49;;;;;;;15.53;5.37;;;9.80;81.60;;;;;;5004122;28;20246;-45
2022/03/19 02:44:18;;;;;;;11.87;4.43;;;9.80;82.50;;;;;;5027117;28;20218;-43
2022/03/19 02:46:47;;;;;;;7.13;3.73;;;9.80;82.50;;;;;;5024474;28;20191;-45
2022/03/19 02:49:15;;;;;;;8.37;3.87;;;10.30;82.10;;;;;;5013065;28;20234;-47
2022/03/19 02:51:44;;;;;;;6.60;3.60;;;9.70;82.90;;;;;;5029529;28;20203;-43
2022/03/19 02:54:13;;;;;;;8.70;4.27;;;9.70;83.20;;;;;;5029835;28;20476;-44
2022/03/19 02:56:42;;;;;;;13.13;5.80;;;9.70;83.60;;;;;;5026073;28;20205;-43
2022/03/19 02:59:12;;;;;;;9.77;5.07;;;9.80;84.30;;;;;;5028736;28;20203;-44
2022/03/19 03:01:40;;;;;;;7.87;3.93;;;9.80;84.60;;;;;;5026510;28;20625;-43
2022/03/19 03:04:07;;;;;;;9.43;4.87;;;9.70;84.60;;;;;;5029255;28;20323;-44
2022/03/19 03:06:36;;;;;;;11.37;5.50;;;9.70;85.20;;;;;;5028646;28;20237;-44
2022/03/19 03:09:04;;;;;;;13.40;6.37;;;9.70;86.10;;;;;;5029385;28;20189;-44
2022/03/19 03:11:32;;;;;;;11.03;5.53;;;9.60;86.90;;;;;;5021157;28;20721;-44
2022/03/19 03:14:01;;;;;;;12.00;5.17;;;9.60;87.30;;;;;;5022957;28;20196;-44
2022/03/19 03:16:28;;;;;;;8.30;4.37;;;9.60;87.50;;;;;;5026219;28;20680;-45
2022/03/19 03:18:58;;;;;;;9.90;4.83;;;9.50;87.50;;;;;;5023299;28;20191;-44
2022/03/19 03:21:27;;;;;;;9.57;4.90;;;9.50;88.00;;;;;;5023075;28;20196;-44
2022/03/19 03:23:54;;;;;;;4.90;3.40;;;9.50;88.20;;;;;;5024482;28;20273;-45
2022/03/19 03:26:22;;;;;;;5.80;3.50;;;9.50;88.30;;;;;;5018342;28;20207;-45
2022/03/19 03:28:49;;;;;;;8.93;4.80;;;9.50;88.50;;;;;;5028405;28;20202;-47
2022/03/19 03:31:18;;;;;;;8.00;4.27;;;9.40;88.90;;;;;;5019019;28;20632;-46
2022/03/19 03:33:46;;;;;;;11.37;4.33;;;9.40;88.90;;;;;;5026905;28;20187;-42
2022/03/19 03:36:14;;;;;;;9.13;4.80;;;9.40;89.20;;;;;;5029710;28;20210;-46
2022/03/19 03:38:41;;;;;;;6.87;3.90;;;9.40;89.50;;;;;;5028191;28;20689;-44
2022/03/19 03:41:08;;;;;;;5.20;3.43;;;9.40;89.40;;;;;;5029388;28;20196;-44
2022/03/19 03:43:36;;;;;;;12.37;5.73;;;9.40;89.30;;;;;;5020697;28;20203;-43
2022/03/19 03:46:04;;;;;;;6.50;4.23;;;9.40;89.90;;;;;;5027510;28;20195;-48
2022/03/19 03:48:35;;;;;;;9.30;4.50;;;9.40;90.00;;;;;;5029279;28;20201;-45
2022/03/19 03:51:03;;;;;;;5.60;3.57;;;9.40;90.10;;;;;;5029261;28;20198;-46
2022/03/19 03:53:31;;;;;;;6.50;4.00;;;9.40;90.00;;;;;;5019005;28;20312;-47
2022/03/19 03:55:58;;;;;;;7.10;3.30;;;9.40;90.00;;;;;;5021184;28;20196;-47
2022/03/19 03:58:25;;;;;;;5.37;3.27;;;9.40;90.00;;;;;;5028610;28;20206;-44
2022/03/19 04:00:53;;;;;;;3.73;2.60;;;9.40;90.00;;;;;;5020073;28;20202;-44
2022/03/19 04:03:20;;;;;;;6.70;2.80;;;9.40;90.00;;;;;;5023277;28;20773;-44
2022/03/19 04:05:49;;;;;;;4.17;3.00;;;9.40;89.90;;;;;;5020446;28;20242;-44
2022/03/19 04:08:16;;;;;;;4.60;3.20;;;9.30;89.80;;;;;;5024198;28;20197;-44
2022/03/19 04:10:43;;;;;;;4.87;3.20;;;9.30;90.00;;;;;;5026746;28;20198;-45
2022/03/19 04:13:10;;;;;;;6.63;4.20;;;9.30;90.00;;;;;;5028969;28;20610;-45
2022/03/19 04:15:38;;;;;;;12.20;5.47;;;9.30;90.20;;;;;;5021126;28;20207;-46
2022/03/19 04:18:05;;;;;;;10.43;5.70;;;9.30;90.40;;;;;;5023565;28;20199;-42
2022/03/19 04:20:32;;;;;;;6.80;4.20;;;9.30;90.50;;;;;;5029242;28;20199;-45
2022/03/19 04:23:01;;;;;;;4.90;3.63;;;9.20;90.40;;;;;;5028064;28;20202;-47
2022/03/19 04:25:28;;;;;;;3.47;3.00;;;9.20;90.40;;;;;;5022979;28;20218;-43
2022/03/19 04:27:57;;;;;;;7.50;3.80;;;9.20;90.50;;;;;;5024894;28;20547;-44
2022/03/19 04:30:27;;;;;;;4.53;3.63;;;9.10;90.60;;;;;;5024767;28;20198;-44
2022/03/19 04:32:56;;;;;;;6.60;4.00;;;9.10;90.60;;;;;;5022182;28;20655;-45
2022/03/19 04:38:12;;;;;;;8.17;4.60;;;9.10;90.90;;;;;;5026440;28;20194;-44
2022/03/19 04:40:40;;;;;;;3.77;2.87;;;9.10;90.90;;;;;;5023478;28;20230;-45
2022/03/19 04:43:09;;;;;;;4.37;3.00;;;9.10;90.90;;;;;;5030274;28;20253;-45
2022/03/19 04:45:37;;;;;;;4.77;3.27;;;9.20;90.80;;;;;;5026863;28;20214;-46
2022/03/19 04:48:05;;;;;;;5.80;2.97;;;9.20;90.70;;;;;;5003440;28;20202;-44
2022/03/19 04:50:35;;;;;;;5.07;3.00;;;9.20;90.70;;;;;;5018575;28;20280;-50
2022/03/19 04:53:03;;;;;;;5.67;3.40;;;9.20;90.70;;;;;;5019972;28;20574;-51
2022/03/19 04:55:31;;;;;;;11.07;5.20;;;9.10;90.70;;;;;;5021776;28;20190;-46
2022/03/19 04:57:58;;;;;;;6.60;3.73;;;9.10;91.00;;;;;;5024170;28;20198;-52
2022/03/19 05:00:25;;;;;;;4.43;3.13;;;9.00;91.10;;;;;;5030934;28;20199;-43
2022/03/19 05:02:52;;;;;;;6.43;3.50;;;9.00;91.10;;;;;;5030230;28;20194;-43
2022/03/19 05:05:24;;;;;;;7.20;4.10;;;9.10;91.50;;;;;;5024802;28;20699;-42
2022/03/19 05:07:52;;;;;;;4.60;3.00;;;9.10;91.20;;;;;;5024174;28;20187;-44
2022/03/19 05:13:07;;;;;;;8.20;4.37;;;9.10;91.30;;;;;;5028560;28;20220;-43
2022/03/19 05:15:35;;;;;;;6.00;3.63;;;9.10;91.40;;;;;;5030388;28;20226;-42
2022/03/19 05:18:03;;;;;;;3.63;3.00;;;9.10;91.50;;;;;;5025092;28;20196;-42
2022/03/19 05:20:31;;;;;;;9.20;4.43;;;9.10;91.40;;;;;;5027156;28;20206;-43
2022/03/19 05:22:58;;;;;;;11.20;5.20;;;9.10;91.50;;;;;;5031324;28;20203;-44
2022/03/19 05:25:25;;;;;;;9.33;4.93;;;9.10;91.70;;;;;;5027821;28;20229;-43
2022/03/19 05:27:52;;;;;;;6.03;3.97;;;9.00;92.00;;;;;;5023908;28;20195;-42
2022/03/19 05:30:21;;;;;;;5.57;3.83;;;9.00;92.20;;;;;;5010424;28;20210;-50
2022/03/19 05:32:49;;;;;;;4.37;3.50;;;9.00;92.30;;;;;;5030797;28;20670;-45
2022/03/19 05:35:18;;;;;;;4.03;2.77;;;9.00;92.40;;;;;;5030698;28;20202;-44
2022/03/19 05:37:46;;;;;;;4.37;2.80;;;9.00;92.40;;;;;;5030902;28;20331;-48
2022/03/19 05:40:15;;;;;;;3.67;2.93;;;9.00;92.50;;;;;;5030552;28;20632;-48
2022/03/19 05:42:42;;;;;;;4.60;3.37;;;8.10;92.20;;;;;;5017577;28;20579;-44
2022/03/19 05:45:10;;;;;;;7.47;4.00;;;8.90;92.70;;;;;;5025380;28;20211;-42
2022/03/19 05:47:40;;;;;;;4.47;3.10;;;9.00;93.00;;;;;;5027964;28;20218;-42
2022/03/19 05:50:08;;;;;;;3.97;2.80;;;8.90;93.00;;;;;;5026813;28;20206;-44
2022/03/19 05:52:36;;;;;;;4.63;2.90;;;8.90;93.00;;;;;;5021385;28;20207;-43
2022/03/19 05:55:03;;;;;;;5.50;3.27;;;9.00;93.10;;;;;;5025495;28;20221;-49
2022/03/19 05:57:30;;;;;;;6.43;3.30;;;9.10;93.20;;;;;;5009882;28;20199;-45
2022/03/19 05:59:58;;;;;;;6.00;3.77;;;9.10;93.10;;;;;;5027207;28;20203;-44
2022/03/19 06:02:25;;;;;;;7.97;4.13;;;9.00;93.20;;;;;;5022131;28;20202;-46
2022/03/19 06:04:54;;;;;;;7.13;3.67;;;9.00;93.50;;;;;;5026806;28;20261;-44
2022/03/19 06:07:21;;;;;;;6.27;3.70;;;9.00;93.70;;;;;;5024363;28;20558;-49
2022/03/19 06:09:49;;;;;;;8.80;4.17;;;9.00;93.70;;;;;;5029898;28;20194;-46
2022/03/19 06:12:16;;;;;;;6.67;3.57;;;8.90;93.90;;;;;;5028664;28;20202;-45
2022/03/19 06:14:43;;;;;;;9.13;4.17;;;8.90;94.10;;;;;;5027071;28;20724;-45
2022/03/19 06:17:10;;;;;;;6.17;3.67;;;8.90;94.20;;;;;;5008741;28;20204;-43
2022/03/19 06:19:37;;;;;;;7.40;4.03;;;8.90;94.20;;;;;;5029818;28;20656;-44
2022/03/19 06:22:06;;;;;;;4.30;3.13;;;8.90;94.30;;;;;;5027183;28;20230;-44
2022/03/19 06:24:33;;;;;;;8.37;4.53;;;8.90;94.30;;;;;;5024294;28;20670;-43
2022/03/19 06:27:00;;;;;;;7.10;4.30;;;8.90;94.40;;;;;;5024766;28;20207;-45
2022/03/19 06:29:27;;;;;;;15.70;7.10;;;9.00;94.50;;;;;;5014125;28;20202;-44
2022/03/19 06:31:54;;;;;;;17.63;6.97;;;9.00;94.90;;;;;;5029160;28;20194;-43
2022/03/19 06:34:21;;;;;;;9.17;5.23;;;9.00;95.10;;;;;;5027150;28;20191;-43
2022/03/19 06:39:35;;;;;;;6.80;3.90;;;9.00;95.00;;;;;;5004448;28;20654;-47
2022/03/19 06:42:02;;;;;;;5.17;3.27;;;8.90;95.10;;;;;;5029212;28;20194;-44
2022/03/19 06:44:29;;;;;;;5.27;3.73;;;8.90;95.10;;;;;;5022172;28;20256;-48
2022/03/19 06:46:56;;;;;;;5.47;3.73;;;8.90;95.20;;;;;;5028164;28;20191;-44
2022/03/19 06:49:26;;;;;;;5.30;3.63;;;8.90;95.30;;;;;;5021525;28;20190;-43
2022/03/19 06:51:53;;;;;;;5.43;3.53;;;8.90;95.50;;;;;;5029596;28;20203;-45
2022/03/19 06:54:20;;;;;;;4.37;2.60;;;8.90;95.60;;;;;;5025502;28;20198;-44
2022/03/19 06:56:49;;;;;;;4.03;2.93;;;8.80;95.50;;;;;;5026100;28;20198;-43
2022/03/19 06:59:16;;;;;;;3.37;2.83;;;8.90;95.70;;;;;;5028920;28;20214;-49
2022/03/19 07:01:43;;;;;;;3.67;2.80;;;8.90;95.80;;;;;;5029168;28;20202;-46
2022/03/19 07:04:10;;;;;;;6.70;3.17;;;8.90;95.70;;;;;;5029098;28;20232;-43
2022/03/19 07:06:37;;;;;;;7.23;3.80;;;8.90;95.90;;;;;;5013172;28;20230;-48
2022/03/19 07:09:04;;;;;;;6.10;3.40;;;8.80;95.90;;;;;;5021614;28;20670;-42
2022/03/19 07:11:32;;;;;;;3.70;2.80;;;8.80;96.10;;;;;;5001024;28;20217;-46
2022/03/19 07:14:03;;;;;;;1.90;1.70;;;8.80;96.10;;;;;;5019628;28;20195;-44
2022/03/19 07:16:30;;;;;;;3.70;2.63;;;8.70;96.10;;;;;;5021316;28;20277;-42
2022/03/19 07:18:57;;;;;;;5.60;3.20;;;8.80;96.20;;;;;;5010737;28;20548;-47
2022/03/19 07:21:25;;;;;;;2.40;2.17;;;8.80;96.30;;;;;;5027404;28;20195;-47
2022/03/19 07:23:52;;;;;;;5.03;3.30;;;8.80;96.30;;;;;;5023161;28;20194;-43
2022/03/19 07:26:19;;;;;;;4.63;2.73;;;8.80;96.50;;;;;;5028145;28;20240;-45
2022/03/19 07:28:46;;;;;;;5.37;2.90;;;8.80;96.50;;;;;;5024018;28;20681;-44
2022/03/19 07:31:16;;;;;;;2.60;2.27;;;8.80;96.50;;;;;;5022974;28;20567;-46
2022/03/19 07:33:46;;;;;;;1.87;1.77;;;8.80;96.50;;;;;;5029517;28;20285;-46
2022/03/19 07:36:14;;;;;;;2.50;1.77;;;8.80;96.40;;;;;;5029893;28;20250;-50
2022/03/19 07:38:41;;;;;;;1.47;1.37;;;8.80;96.30;;;;;;5029739;28;20202;-44
2022/03/19 07:43:53;;;;;;;3.87;2.60;;;8.90;96.30;;;;;;5027579;28;20213;-45
2022/03/19 07:46:22;;;;;;;4.43;2.57;;;8.90;96.20;;;;;;5026981;28;20743;-47
2022/03/19 07:48:49;;;;;;;5.40;2.30;;;8.90;96.30;;;;;;5028973;28;20286;-44
2022/03/19 07:51:16;;;;;;;9.80;5.23;;;9.00;96.30;;;;;;5029575;28;20657;-44
2022/03/19 07:53:45;;;;;;;10.10;5.57;;;9.00;96.60;;;;;;5029115;28;20199;-45
2022/03/19 07:56:12;;;;;;;8.13;4.67;;;9.00;96.50;;;;;;5029509;28;20214;-49
2022/03/19 07:58:40;;;;;;;3.80;3.10;;;9.00;96.50;;;;;;5022999;28;20230;-45
2022/03/19 08:01:07;;;;;;;3.80;2.83;;;9.00;96.50;;;;;;5028902;28;20309;-48
2022/03/19 08:03:37;;;;;;;3.27;1.93;;;9.00;96.50;;;;;;5027868;28;20340;-46
2022/03/19 08:06:05;;;;;;;3.00;2.07;;;9.10;96.40;;;;;;5029780;28;20210;-46
2022/03/19 08:08:33;;;;;;;2.80;2.10;;;9.10;96.10;;;;;;5027660;28;20290;-45
2022/03/19 08:11:00;;;;;;;6.37;3.33;;;9.10;96.00;;;;;;5028612;28;20202;-46
2022/03/19 08:13:27;;;;;;;5.50;3.17;;;9.10;95.80;;;;;;5028746;28;20653;-43
2022/03/19 08:15:54;;;;;;;4.43;3.90;;;9.10;95.80;;;;;;5024642;28;20222;-44
2022/03/19 08:18:21;;;;;;;4.13;3.50;;;9.10;95.90;;;;;;5032407;28;20190;-44
2022/03/19 08:20:50;;;;;;;3.03;2.60;;;9.10;95.80;;;;;;5015839;28;20233;-49
2022/03/19 08:23:19;;;;;;;2.17;2.03;;;9.10;95.80;;;;;;5008121;28;20230;-46
2022/03/19 08:25:46;;;;;;;1.90;1.80;;;9.10;95.80;;;;;;5026854;28;20240;-52
2022/03/19 08:28:13;;;;;;;2.20;2.00;;;9.10;95.80;;;;;;5033384;28;20573;-49
2022/03/19 08:30:41;;;;;;;3.57;2.00;;;9.10;95.80;;;;;;5026445;28;20202;-50
2022/03/19 08:33:08;;;;;;;2.83;1.87;;;9.10;95.70;;;;;;5032642;28;20578;-51
2022/03/19 08:35:35;;;;;;;1.50;1.40;;;9.10;95.50;;;;;;5033779;28;20206;-51
2022/03/19 08:40:45;;;;;;;2.43;1.47;;;9.20;95.40;;;;;;4982694;28;20582;-49
2022/03/19 08:43:12;;;;;;;1.80;1.70;;;9.20;95.20;;;;;;5033160;28;20616;-43
2022/03/19 08:45:39;;;;;;;1.57;1.40;;;9.20;95.20;;;;;;5032086;28;20259;-45
2022/03/19 08:48:06;;;;;;;1.43;1.30;;;9.20;95.20;;;;;;5032737;28;20195;-43
2022/03/19 08:50:34;;;;;;;2.23;1.70;;;9.20;95.20;;;;;;5032930;28;20202;-42
2022/03/19 08:53:01;;;;;;;1.47;1.37;;;9.20;95.20;;;;;;5032455;28;20681;-46
2022/03/19 08:55:29;;;;;;;2.07;1.30;;;9.20;95.20;;;;;;5031753;28;20209;-47
2022/03/19 08:57:56;;;;;;;1.20;1.10;;;9.20;95.20;;;;;;5033326;28;20187;-42
2022/03/19 09:00:24;;;;;;;1.90;1.10;;;9.20;95.10;;;;;;5032275;28;20205;-48
2022/03/19 09:02:51;;;;;;;1.63;1.13;;;9.20;94.90;;;;;;5032246;28;20662;-45
2022/03/19 09:05:18;;;;;;;0.73;0.73;;;9.20;94.70;;;;;;5032132;28;20234;-46
2022/03/19 09:07:45;;;;;;;0.87;0.87;;;9.20;94.60;;;;;;5024117;28;20731;-45
2022/03/19 09:10:12;;;;;;;0.87;0.83;;;9.20;94.60;;;;;;5031956;28;20199;-45
2022/03/19 09:12:42;;;;;;;1.03;0.80;;;9.30;94.60;;;;;;5025179;28;20609;-43
2022/03/19 09:15:11;;;;;;;1.70;1.00;;;9.30;94.60;;;;;;5032180;28;20229;-46
2022/03/19 09:17:39;;;;;;;0.97;0.87;;;9.30;94.60;;;;;;5031014;28;20663;-45
2022/03/19 09:20:07;;;;;;;0.80;0.80;;;9.40;94.60;;;;;;5026918;28;20198;-42
2022/03/19 09:22:35;;;;;;;0.70;0.70;;;9.40;94.60;;;;;;5031369;28;20606;-45
2022/03/19 09:25:02;;;;;;;2.70;0.97;;;9.40;94.50;;;;;;5032184;28;20236;-46
2022/03/19 09:27:29;;;;;;;1.43;1.30;;;9.40;94.50;;;;;;5031465;28;20214;-44
2022/03/19 09:29:58;;;;;;;2.10;1.10;;;9.40;94.40;;;;;;5032238;28;20196;-45
2022/03/19 09:32:25;;;;;;;1.13;1.03;;;9.30;94.40;;;;;;5030728;28;20203;-43
2022/03/19 09:34:53;;;;;;;0.73;0.73;;;9.30;94.50;;;;;;5032555;28;20654;-42
2022/03/19 09:37:20;;;;;;;1.00;0.90;;;9.30;94.50;;;;;;5024491;28;20627;-45
2022/03/19 09:39:49;;;;;;;1.67;1.20;;;9.30;94.50;;;;;;5030128;28;20604;-47
2022/03/19 09:42:16;;;;;;;1.33;1.03;;;9.30;94.60;;;;;;5030079;28;20225;-43
2022/03/19 09:44:44;;;;;;;1.20;1.00;;;9.30;94.50;;;;;;5031260;28;20225;-46
2022/03/19 09:47:13;;;;;;;0.50;0.50;;;9.30;94.40;;;;;;5030506;28;21560;-44
2022/03/19 09:49:41;;;;;;;0.60;0.60;;;9.30;94.80;;;;;;5011970;28;20579;-50
2022/03/19 09:52:08;;;;;;;0.77;0.77;;;9.30;94.40;;;;;;5030216;28;20222;-47
2022/03/19 09:54:35;;;;;;;0.60;0.60;;;9.40;94.40;;;;;;5031313;28;20643;-50
2022/03/19 09:57:03;;;;;;;1.63;0.80;;;9.40;94.30;;;;;;5030587;28;20654;-46
2022/03/19 09:59:34;;;;;;;1.27;0.90;;;9.40;94.30;;;;;;5022189;28;20206;-44
2022/03/19 10:02:06;;;;;;;0.70;0.70;;;9.40;94.30;;;;;;5019027;28;20226;-43
2022/03/19 10:04:35;;;;;;;0.57;0.57;;;9.40;94.30;;;;;;5025829;28;20244;-45
2022/03/19 10:09:48;;;;;;;2.40;1.00;;;9.40;94.30;;;;;;5026441;28;20666;-47
2022/03/19 10:12:18;;;;;;;1.03;0.90;;;9.40;94.40;;;;;;5022023;28;20199;-45
2022/03/19 10:14:50;;;;;;;4.23;3.40;;;9.50;94.40;;;;;;5028257;28;20191;-46
2022/03/19 10:17:31;;;;;;;4.30;2.80;;;9.60;94.50;;;;;;5024147;28;20195;-47
2022/03/19 10:20:05;;;;;;;4.13;2.93;;;9.50;94.40;;;;;;5010195;28;20195;-46
2022/03/19 10:22:33;;;;;;;2.87;1.97;;;9.60;94.40;;;;;;5010182;28;20205;-47
2022/03/19 10:25:02;;;;;;;1.90;1.67;;;9.60;94.40;;;;;;5019044;28;20204;-45
2022/03/19 10:27:34;;;;;;;1.37;1.27;;;9.60;94.40;;;;;;5027383;28;20206;-45
2022/03/19 10:30:08;;;;;;;1.00;0.90;;;9.60;94.30;;;;;;5021296;28;20207;-42
2022/03/19 10:32:35;;;;;;;0.83;0.83;;;9.60;94.20;;;;;;5018254;28;20198;-43
2022/03/19 10:35:04;;;;;;;0.80;0.80;;;9.70;94.20;;;;;;5026567;28;20201;-45
2022/03/19 10:37:37;;;;;;;2.20;1.10;;;9.60;94.20;;;;;;5012073;28;20194;-47
2022/03/19 10:40:07;;;;;;;1.10;1.10;;;9.60;94.10;;;;;;5018312;28;20220;-45
2022/03/19 10:42:41;;;;;;;1.60;1.10;;;10.60;94.00;;;;;;5028422;28;20224;-42
2022/03/19 10:45:10;;;;;;;1.27;0.90;;;9.70;94.00;;;;;;5020681;28;20612;-44
2022/03/19 10:47:41;;;;;;;0.83;0.83;;;9.70;93.90;;;;;;5023882;28;20217;-44
2022/03/19 10:50:10;;;;;;;1.47;1.23;;;9.80;93.90;;;;;;5024763;28;20662;-44
2022/03/19 10:52:38;;;;;;;1.50;1.40;;;9.80;94.00;;;;;;5022689;28;20614;-47
2022/03/19 10:55:07;;;;;;;4.43;2.00;;;9.80;94.00;;;;;;5011420;28;20198;-46
2022/03/19 10:57:35;;;;;;;2.53;1.73;;;9.80;94.10;;;;;;5027888;28;20202;-44
2022/03/19 11:00:03;;;;;;;3.67;2.20;;;9.80;94.10;;;;;;5025487;28;20206;-44
2022/03/19 11:02:32;;;;;;;2.53;2.30;;;9.80;94.10;;;;;;5027095;28;20200;-43
2022/03/19 11:05:00;;;;;;;3.00;1.97;;;9.80;94.10;;;;;;5027465;28;20714;-43
2022/03/19 11:07:34;;;;;;;1.87;1.60;;;9.80;94.10;;;;;;5022851;28;20216;-47
2022/03/19 11:10:05;;;;;;;1.50;1.40;;;9.90;94.10;;;;;;5018868;28;20656;-46
2022/03/19 11:12:33;;;;;;;1.10;1.07;;;10.20;93.60;;;;;;5026547;28;20209;-48
2022/03/19 11:15:04;;;;;;;1.83;1.73;;;9.90;93.90;;;;;;5012536;28;20213;-49
2022/03/19 11:17:32;;;;;;;2.47;2.00;;;9.90;93.90;;;;;;5022645;28;20197;-43
2022/03/19 11:20:02;;;;;;;1.80;1.70;;;9.90;93.90;;;;;;5011474;28;20199;-43
2022/03/19 11:22:39;;;;;;;1.60;1.50;;;9.90;93.90;;;;;;5016754;28;20205;-44
2022/03/19 11:25:16;;;;;;;1.27;1.17;;;9.90;93.90;;;;;;5019239;28;20195;-47
2022/03/19 11:27:47;;;;;;;2.67;1.70;;;10.00;93.40;;;;;;5023536;28;20537;-52
2022/03/19 11:30:21;;;;;;;1.97;1.50;;;10.10;93.30;;;;;;5027322;28;20206;-46
2022/03/19 11:33:04;;;;;;;1.10;1.10;;;10.10;93.30;;;;;;5014663;28;20285;-48
2022/03/19 11:35:33;;;;;;;2.20;2.00;;;10.10;93.20;;;;;;5025350;28;20627;-45
2022/03/19 11:38:11;;;;;;;3.23;2.53;;;10.10;93.20;;;;;;5026456;28;20202;-47
2022/03/19 11:40:42;;;;;;;3.47;2.73;;;10.10;93.20;;;;;;5010601;28;20371;-44
2022/03/19 11:43:11;;;;;;;2.43;2.23;;;10.00;93.30;;;;;;5014197;28;20257;-44
2022/03/19 11:45:54;;;;;;;2.30;2.00;;;10.00;93.30;;;;;;5023793;28;20288;-44
2022/03/19 11:48:41;;;;;;;4.73;2.80;;;10.10;93.30;;;;;;5018426;28;20297;-47
2022/03/19 11:51:37;;;;;;;6.93;2.83;;;10.00;93.30;;;;;;5021786;28;20256;-47
2022/03/19 11:54:09;;;;;;;2.53;2.20;;;10.00;93.30;;;;;;5016509;28;20206;-49
2022/03/19 11:57:08;;;;;;;3.53;2.40;;;10.00;93.30;;;;;;5028197;28;20225;-47
2022/03/19 11:59:48;;;;;;;3.23;2.80;;;10.00;93.20;;;;;;5028249;28;20304;-44
2022/03/19 12:02:15;;;;;;;2.43;2.23;;;10.10;93.20;;;;;;5020876;28;20422;-46
2022/03/19 12:04:45;;;;;;;2.70;2.23;;;10.10;93.10;;;;;;5024534;28;20605;-45
2022/03/19 12:07:14;;;;;;;1.97;1.77;;;10.20;93.10;;;;;;5028898;28;20209;-47
2022/03/19 12:10:01;;;;;;;1.87;1.77;;;10.20;93.10;;;;;;5022516;28;20268;-46
2022/03/19 12:12:29;;;;;;;3.03;2.40;;;10.20;93.10;;;;;;4998389;28;20287;-46
2022/03/19 12:14:57;;;;;;;2.00;1.90;;;10.20;93.10;;;;;;5024201;28;20190;-45
2022/03/19 12:17:31;;;;;;;4.37;2.70;;;10.10;93.10;;;;;;5020391;28;20195;-47
2022/03/19 12:20:01;;;;;;;2.77;2.30;;;10.10;93.10;;;;;;5020571;28;20280;-49
2022/03/19 12:22:35;;;;;;;1.97;1.80;;;10.10;93.10;;;;;;5021927;28;20198;-47
2022/03/19 12:25:12;;;;;;;3.13;1.87;;;10.10;93.10;;;;;;5011641;28;20205;-46
2022/03/19 12:27:40;;;;;;;1.93;1.80;;;10.10;93.20;;;;;;5020658;28;20955;-49
2022/03/19 12:30:09;;;;;;;2.73;2.00;;;10.10;93.20;;;;;;5018206;28;20273;-44
2022/03/19 12:32:49;;;;;;;3.23;2.63;;;10.00;93.20;;;;;;5025958;28;20206;-48
2022/03/19 12:35:17;;;;;;;10.93;3.23;;;10.00;93.30;;;;;;5014250;28;20207;-48
2022/03/19 12:37:49;;;;;;;6.93;2.70;;;10.00;93.40;;;;;;5014977;28;20326;-44
2022/03/19 12:40:22;;;;;;;4.70;2.40;;;10.00;93.40;;;;;;5007141;28;20209;-49
2022/03/19 12:42:55;;;;;;;4.83;2.10;;;10.00;93.40;;;;;;5017921;28;20196;-45
2022/03/19 12:45:37;;;;;;;2.27;2.07;;;10.10;93.40;;;;;;5005316;28;20277;-47
2022/03/19 12:48:12;;;;;;;2.07;1.63;;;10.00;93.30;;;;;;5014227;28;20228;-48
2022/03/19 12:50:41;;;;;;;2.37;2.07;;;10.10;93.60;;;;;;5027546;28;20198;-45
2022/03/19 12:53:08;;;;;;;3.37;1.80;;;10.10;93.60;;;;;;5025141;28;20192;-43
2022/03/19 12:55:38;;;;;;;2.00;1.80;;;10.10;93.30;;;;;;5021454;28;20197;-46
2022/03/19 12:58:06;;;;;;;6.80;2.23;;;10.10;93.30;;;;;;5020676;28;20194;-48
2022/03/19 13:00:33;;;;;;;2.30;1.77;;;10.10;93.20;;;;;;5021778;28;20192;-46
2022/03/19 13:03:00;;;;;;;4.03;2.20;;;10.20;93.20;;;;;;5027782;28;20207;-44
2022/03/19 13:05:27;;;;;;;4.20;2.27;;;10.20;93.20;;;;;;5017282;28;20564;-46
2022/03/19 13:08:05;;;;;;;4.80;2.47;;;10.20;93.30;;;;;;5024192;28;20231;-48
2022/03/19 13:10:42;;;;;;;2.83;2.50;;;10.20;93.30;;;;;;5025233;28;20202;-49
2022/03/19 13:13:10;;;;;;;3.80;2.00;;;10.20;93.30;;;;;;5025980;28;20223;-46
2022/03/19 13:15:37;;;;;;;3.50;2.23;;;10.20;93.20;;;;;;5026287;28;20236;-43
2022/03/19 13:18:04;;;;;;;2.50;1.80;;;10.10;93.20;;;;;;5018989;28;20206;-45
2022/03/19 13:20:31;;;;;;;2.90;2.00;;;10.00;93.10;;;;;;5013202;28;20221;-48